Time;durP1;ratioP1;P1;durP2;ratioP2;P2;SDS_P1;SDS_P2;PMS_P1;PMS_P2;Temp;Humidity;BMP_temperature;BMP_pressure;BME280_temperature;BME280_humidity;BME280_pressure;Samples;Min_cycle;Max_cycle;Signal;HPM_P1;HPM_P2
2022/12/04 00:01:29;;;;;;;3.45;1.27;;;;;;;;;;5058206;28;20044;-69
2022/12/04 00:03:58;;;;;;;2.45;2.15;;;;;;;;;;5067637;28;20057;-68
2022/12/04 00:06:28;;;;;;;2.17;1.73;;;;;;;;;;5058514;28;20488;-69
2022/12/04 00:08:56;;;;;;;2.22;1.75;;;;;;;;;;5061070;28;20485;-69
2022/12/04 00:11:26;;;;;;;1.77;1.23;;;;;;;;;;5065874;28;20055;-69
2022/12/04 00:13:55;;;;;;;0.77;0.77;;;;;;;;;;5061883;28;20158;-68
2022/12/04 00:16:31;;;;;;;3.33;1.63;;;;;;;;;;5062058;28;20048;-68
2022/12/04 00:19:00;;;;;;;1.83;1.35;;;;;;;;;;5070844;28;20056;-69
2022/12/04 00:21:29;;;;;;;0.75;0.70;;;;;;;;;;5072055;28;20044;-71
2022/12/04 00:23:58;;;;;;;2.50;1.25;;;;;;;;;;5073985;28;20037;-68
2022/12/04 00:26:27;;;;;;;1.25;1.02;;;;;;;;;;5067141;28;20057;-68
2022/12/04 00:28:56;;;;;;;1.48;1.20;;;;;;;;;;5068121;28;20068;-69
2022/12/04 00:31:26;;;;;;;2.92;1.27;;;;;;;;;;5055363;28;20505;-69
2022/12/04 00:33:56;;;;;;;2.45;1.85;;;;;;;;;;5064107;28;20143;-71
2022/12/04 00:36:26;;;;;;;0.68;0.68;;;;;;;;;;5068784;28;20075;-70
2022/12/04 00:38:54;;;;;;;1.08;1.05;;;;;;;;;;5070796;28;20059;-69
2022/12/04 00:41:25;;;;;;;1.83;1.73;;;;;;;;;;5068036;28;20044;-68
2022/12/04 00:43:53;;;;;;;1.80;1.15;;;;;;;;;;5071863;28;20055;-70
2022/12/04 00:46:22;;;;;;;1.08;0.95;;;;;;;;;;5068817;28;20139;-68
2022/12/04 00:48:51;;;;;;;2.50;1.23;;;;;;;;;;5065563;28;20090;-68
2022/12/04 00:51:22;;;;;;;0.75;0.73;;;;;;;;;;5068285;28;20388;-68
2022/12/04 00:53:51;;;;;;;3.35;1.00;;;;;;;;;;5070278;28;20420;-69
2022/12/04 00:56:21;;;;;;;3.35;1.88;;;;;;;;;;5074725;28;20093;-68
2022/12/04 00:58:52;;;;;;;0.75;0.75;;;;;;;;;;5071541;28;20040;-71
2022/12/04 01:01:21;;;;;;;1.50;1.40;;;;;;;;;;5073956;28;20110;-68
2022/12/04 01:03:49;;;;;;;1.13;1.00;;;;;;;;;;5070684;28;20050;-71
2022/12/04 01:06:19;;;;;;;1.60;1.02;;;;;;;;;;5065759;28;20491;-69
2022/12/04 01:08:49;;;;;;;1.00;0.93;;;;;;;;;;5069959;28;20053;-69
2022/12/04 01:11:18;;;;;;;3.20;1.65;;;;;;;;;;5061676;28;20060;-69
2022/12/04 01:13:47;;;;;;;2.08;0.73;;;;;;;;;;5076165;28;20131;-68
2022/12/04 01:16:19;;;;;;;1.08;0.70;;;;;;;;;;5072207;28;20041;-69
2022/12/04 01:18:48;;;;;;;1.02;1.00;;;;;;;;;;5060662;28;20045;-69
2022/12/04 01:21:16;;;;;;;0.98;0.57;;;;;;;;;;5070734;28;20045;-68
2022/12/04 01:23:45;;;;;;;1.08;0.95;;;;;;;;;;5072108;28;20049;-68
2022/12/04 01:26:15;;;;;;;2.05;1.35;;;;;;;;;;5071808;28;20040;-68
2022/12/04 01:28:43;;;;;;;1.52;1.35;;;;;;;;;;5066289;28;20072;-68
2022/12/04 01:31:13;;;;;;;4.35;1.98;;;;;;;;;;5070038;28;20499;-68
2022/12/04 01:33:42;;;;;;;1.92;0.93;;;;;;;;;;5062578;28;20071;-68
2022/12/04 01:36:11;;;;;;;1.15;0.68;;;;;;;;;;5062940;28;20058;-68
2022/12/04 01:38:40;;;;;;;2.88;1.00;;;;;;;;;;5058583;28;20132;-69
2022/12/04 01:41:10;;;;;;;0.40;0.40;;;;;;;;;;5069728;28;20075;-68
2022/12/04 01:43:40;;;;;;;1.13;0.75;;;;;;;;;;5065938;28;20052;-69
2022/12/04 01:46:08;;;;;;;1.65;0.75;;;;;;;;;;5071586;28;20044;-69
2022/12/04 01:48:38;;;;;;;0.55;0.55;;;;;;;;;;5064593;28;20143;-68
2022/12/04 01:51:09;;;;;;;1.55;0.93;;;;;;;;;;5071823;28;20485;-68
2022/12/04 01:53:39;;;;;;;2.20;1.60;;;;;;;;;;5071867;28;20079;-68
2022/12/04 01:56:08;;;;;;;0.52;0.52;;;;;;;;;;5067566;28;20048;-68
2022/12/04 01:58:39;;;;;;;1.90;1.75;;;;;;;;;;5059469;28;20055;-71
2022/12/04 02:01:09;;;;;;;1.40;0.68;;;;;;;;;;5068659;28;20464;-68
2022/12/04 02:03:38;;;;;;;0.80;0.65;;;;;;;;;;5069938;28;20039;-68
2022/12/04 02:06:07;;;;;;;4.13;2.40;;;;;;;;;;5068317;28;20173;-68
2022/12/04 02:08:36;;;;;;;0.60;0.50;;;;;;;;;;5067899;28;20055;-69
2022/12/04 02:11:16;;;;;;;1.60;1.40;;;;;;;;;;5069860;28;20527;-70
2022/12/04 02:13:50;;;;;;;1.35;1.25;;;;;;;;;;5070112;28;20080;-70
2022/12/04 02:16:22;;;;;;;1.98;0.75;;;;;;;;;;5068104;28;20044;-69
2022/12/04 02:18:57;;;;;;;1.33;1.23;;;;;;;;;;5060837;28;20061;-68
2022/12/04 02:21:30;;;;;;;1.48;1.02;;;;;;;;;;5072301;28;20056;-69
2022/12/04 02:24:19;;;;;;;10.35;0.60;;;;;;;;;;5067241;28;20044;-71
2022/12/04 02:26:50;;;;;;;0.63;0.63;;;;;;;;;;5055343;28;20517;-69
2022/12/04 02:29:24;;;;;;;3.45;1.70;;;;;;;;;;5060624;28;20144;-71
2022/12/04 02:31:58;;;;;;;1.23;0.80;;;;;;;;;;5061167;28;20057;-68
2022/12/04 02:34:29;;;;;;;1.13;0.40;;;;;;;;;;5059828;28;20830;-71
2022/12/04 02:37:00;;;;;;;2.05;0.45;;;;;;;;;;5069251;28;20044;-68
2022/12/04 02:39:33;;;;;;;0.88;0.82;;;;;;;;;;5069303;28;20045;-69
2022/12/04 02:42:03;;;;;;;0.85;0.75;;;;;;;;;;5063784;28;20049;-68
2022/12/04 02:44:36;;;;;;;1.90;1.55;;;;;;;;;;5067363;28;20051;-69
2022/12/04 02:47:06;;;;;;;1.65;1.55;;;;;;;;;;5059601;28;20048;-70
2022/12/04 02:49:37;;;;;;;4.15;1.70;;;;;;;;;;5067614;28;20048;-68
2022/12/04 02:52:08;;;;;;;2.90;0.70;;;;;;;;;;5070980;28;20123;-68
2022/12/04 02:54:38;;;;;;;1.73;1.63;;;;;;;;;;5066259;28;20163;-70
2022/12/04 02:57:09;;;;;;;4.25;1.52;;;;;;;;;;5060260;28;20083;-70
2022/12/04 02:59:40;;;;;;;0.57;0.47;;;;;;;;;;5068886;28;20039;-71
2022/12/04 03:02:10;;;;;;;1.58;1.48;;;;;;;;;;5069497;28;20139;-69
2022/12/04 03:04:39;;;;;;;0.52;0.52;;;;;;;;;;5065817;28;20048;-68
2022/12/04 03:07:12;;;;;;;3.97;1.98;;;;;;;;;;5065999;28;20056;-69
2022/12/04 03:09:43;;;;;;;0.57;0.45;;;;;;;;;;5073985;28;20060;-69
2022/12/04 03:12:14;;;;;;;1.83;1.30;;;;;;;;;;5078569;28;20664;-68
2022/12/04 03:14:47;;;;;;;1.45;1.15;;;;;;;;;;5074716;28;20044;-68
2022/12/04 03:17:17;;;;;;;1.55;1.17;;;;;;;;;;5067546;28;20136;-68
2022/12/04 03:19:49;;;;;;;2.53;1.55;;;;;;;;;;5073033;28;20048;-68
2022/12/04 03:22:19;;;;;;;1.83;1.13;;;;;;;;;;5062984;28;20041;-71
2022/12/04 03:24:50;;;;;;;0.50;0.45;;;;;;;;;;5069146;28;20097;-69
2022/12/04 03:27:24;;;;;;;4.68;1.08;;;;;;;;;;5062694;28;20048;-68
2022/12/04 03:29:57;;;;;;;0.90;0.90;;;;;;;;;;5068139;28;20045;-68
2022/12/04 03:32:28;;;;;;;2.65;0.88;;;;;;;;;;5064660;28;20054;-68
2022/12/04 03:34:58;;;;;;;0.68;0.68;;;;;;;;;;5067587;28;20080;-68
2022/12/04 03:37:32;;;;;;;3.03;0.88;;;;;;;;;;5067080;28;20044;-68
2022/12/04 03:40:03;;;;;;;1.88;1.25;;;;;;;;;;5071202;28;20507;-68
2022/12/04 03:42:36;;;;;;;0.85;0.40;;;;;;;;;;5061650;28;20159;-68
2022/12/04 03:45:09;;;;;;;1.45;1.27;;;;;;;;;;5077402;28;20044;-68
2022/12/04 03:47:41;;;;;;;1.00;0.80;;;;;;;;;;5073301;28;20052;-69
2022/12/04 03:50:14;;;;;;;1.40;0.63;;;;;;;;;;5070831;28;20045;-68
2022/12/04 03:52:46;;;;;;;3.33;1.45;;;;;;;;;;5066164;28;20083;-68
2022/12/04 03:55:18;;;;;;;1.92;0.73;;;;;;;;;;5070943;28;20052;-68
2022/12/04 03:57:47;;;;;;;0.82;0.82;;;;;;;;;;5072630;28;20048;-68
2022/12/04 04:00:19;;;;;;;0.20;0.20;;;;;;;;;;5064388;28;20049;-68
2022/12/04 04:02:49;;;;;;;0.43;0.43;;;;;;;;;;5085397;28;20150;-68
2022/12/04 04:05:18;;;;;;;1.98;0.98;;;;;;;;;;5077325;28;20048;-68
2022/12/04 04:07:48;;;;;;;1.48;0.75;;;;;;;;;;5073017;28;20053;-69
2022/12/04 04:10:18;;;;;;;1.13;1.05;;;;;;;;;;5063142;28;20056;-68
2022/12/04 04:24:13;;;;;;;1.15;1.15;;;;;;;;;;5074497;28;20513;-68
2022/12/04 04:24:16;;;;;;;0.68;0.68;;;;;;;;;;5057671;28;20374;-68
2022/12/04 04:26:46;;;;;;;2.15;1.50;;;;;;;;;;5071950;28;20068;-69
2022/12/04 04:29:14;;;;;;;1.55;1.05;;;;;;;;;;5067209;28;20397;-70
2022/12/04 04:31:47;;;;;;;0.77;0.77;;;;;;;;;;5071446;28;20416;-68
2022/12/04 04:34:19;;;;;;;0.85;0.57;;;;;;;;;;5065194;28;20051;-68
2022/12/04 04:36:54;;;;;;;3.88;1.05;;;;;;;;;;5074976;28;20048;-70
2022/12/04 04:39:28;;;;;;;1.45;1.33;;;;;;;;;;5068784;28;20514;-68
2022/12/04 04:41:58;;;;;;;0.57;0.57;;;;;;;;;;5064740;28;20045;-69
2022/12/04 04:44:28;;;;;;;1.38;0.60;;;;;;;;;;5071608;28;20060;-68
2022/12/04 04:47:00;;;;;;;1.33;1.08;;;;;;;;;;5072324;28;20067;-68
2022/12/04 04:49:31;;;;;;;1.58;1.33;;;;;;;;;;5075449;28;20059;-68
2022/12/04 04:51:59;;;;;;;1.85;0.88;;;;;;;;;;5069584;28;20045;-68
2022/12/04 04:54:28;;;;;;;1.48;1.25;;;;;;;;;;5061888;28;20051;-70
2022/12/04 04:56:57;;;;;;;1.63;1.50;;;;;;;;;;5078213;28;20063;-73
2022/12/04 04:59:25;;;;;;;1.00;0.63;;;;;;;;;;5063294;28;20075;-68
2022/12/04 05:01:53;;;;;;;0.30;0.30;;;;;;;;;;5066435;28;20044;-69
2022/12/04 05:04:23;;;;;;;3.88;1.60;;;;;;;;;;5076367;28;20044;-68
2022/12/04 05:06:52;;;;;;;1.70;0.77;;;;;;;;;;5070629;28;20507;-68
2022/12/04 05:09:20;;;;;;;1.67;1.58;;;;;;;;;;5072480;28;20489;-68
2022/12/04 05:11:48;;;;;;;0.68;0.65;;;;;;;;;;5072799;28;20061;-68
2022/12/04 05:14:17;;;;;;;4.45;0.90;;;;;;;;;;5073705;28;20424;-69
2022/12/04 05:16:45;;;;;;;2.50;1.15;;;;;;;;;;5070630;28;20556;-68
2022/12/04 05:22:00;;;;;;;0.30;0.30;;;;;;;;;;5065644;28;20493;-68
2022/12/04 05:24:29;;;;;;;1.08;1.08;;;;;;;;;;5064181;28;20499;-69
2022/12/04 05:26:57;;;;;;;0.38;0.38;;;;;;;;;;5071213;28;20053;-69
2022/12/04 05:29:25;;;;;;;1.45;1.40;;;;;;;;;;5072104;28;20053;-69
2022/12/04 05:32:00;;;;;;;2.38;0.55;;;;;;;;;;5072270;28;20051;-68
2022/12/04 05:34:28;;;;;;;1.02;0.98;;;;;;;;;;5073025;28;20040;-69
2022/12/04 05:36:56;;;;;;;0.57;0.57;;;;;;;;;;5070394;28;20051;-68
2022/12/04 05:39:26;;;;;;;0.40;0.40;;;;;;;;;;5061537;28;20044;-70
2022/12/04 05:41:54;;;;;;;2.13;1.25;;;;;;;;;;5067031;28;20106;-69
2022/12/04 05:44:23;;;;;;;1.38;1.30;;;;;;;;;;5069373;28;20095;-69
2022/12/04 05:46:51;;;;;;;1.75;1.10;;;;;;;;;;5070427;28;20144;-68
2022/12/04 05:49:20;;;;;;;2.00;0.63;;;;;;;;;;5071695;28;20139;-68
2022/12/04 05:51:49;;;;;;;0.50;0.50;;;;;;;;;;5068115;28;20052;-69
2022/12/04 05:54:18;;;;;;;1.15;1.05;;;;;;;;;;5062805;28;20055;-68
2022/12/04 05:56:48;;;;;;;2.70;1.48;;;;;;;;;;5068747;28;20045;-71
2022/12/04 05:59:16;;;;;;;0.77;0.65;;;;;;;;;;5064109;28;20053;-68
2022/12/04 06:01:45;;;;;;;0.95;0.95;;;;;;;;;;5062782;28;20071;-68
2022/12/04 06:04:13;;;;;;;1.23;0.80;;;;;;;;;;5062396;28;20105;-68
2022/12/04 06:06:42;;;;;;;3.53;2.00;;;;;;;;;;5059117;28;20049;-68
2022/12/04 06:09:11;;;;;;;1.30;0.90;;;;;;;;;;5065290;28;20044;-69
2022/12/04 06:11:41;;;;;;;0.55;0.55;;;;;;;;;;5067878;28;20048;-68
2022/12/04 06:14:12;;;;;;;0.20;0.20;;;;;;;;;;5066081;28;20048;-68
2022/12/04 06:16:42;;;;;;;2.28;1.25;;;;;;;;;;5059181;28;20045;-69
2022/12/04 06:19:11;;;;;;;2.88;1.35;;;;;;;;;;5068240;28;20109;-70
2022/12/04 06:21:41;;;;;;;2.65;0.70;;;;;;;;;;5068259;28;20049;-69
2022/12/04 06:24:13;;;;;;;2.17;1.42;;;;;;;;;;5071297;28;20506;-69
2022/12/04 06:26:42;;;;;;;0.63;0.63;;;;;;;;;;5062850;28;20450;-70
2022/12/04 06:29:31;;;;;;;1.63;1.15;;;;;;;;;;5075267;28;20048;-68
2022/12/04 06:32:00;;;;;;;3.60;1.85;;;;;;;;;;5060468;28;20385;-68
2022/12/04 06:34:29;;;;;;;1.10;1.00;;;;;;;;;;5070891;28;20049;-68
2022/12/04 06:36:57;;;;;;;2.47;1.52;;;;;;;;;;5056007;28;20413;-68
2022/12/04 06:39:26;;;;;;;0.82;0.82;;;;;;;;;;5083124;28;20063;-69
2022/12/04 06:41:54;;;;;;;0.82;0.82;;;;;;;;;;5065209;28;20468;-69
2022/12/04 06:44:22;;;;;;;1.17;1.13;;;;;;;;;;5072072;28;20120;-67
2022/12/04 06:46:52;;;;;;;0.98;0.70;;;;;;;;;;5066929;28;20048;-69
2022/12/04 06:49:24;;;;;;;1.38;1.00;;;;;;;;;;5067211;28;20046;-68
2022/12/04 06:51:52;;;;;;;4.05;1.65;;;;;;;;;;5064815;28;20040;-70
2022/12/04 06:54:21;;;;;;;2.00;1.42;;;;;;;;;;5064075;28;20076;-69
2022/12/04 06:56:49;;;;;;;0.55;0.55;;;;;;;;;;5059883;28;20438;-71
2022/12/04 06:59:18;;;;;;;1.00;1.00;;;;;;;;;;5068066;28;20059;-69
2022/12/04 07:01:46;;;;;;;1.50;0.88;;;;;;;;;;5063725;28;20060;-69
2022/12/04 07:04:16;;;;;;;1.60;1.45;;;;;;;;;;5063171;28;20101;-68
2022/12/04 07:06:45;;;;;;;1.70;1.58;;;;;;;;;;5062035;28;20044;-68
2022/12/04 07:09:15;;;;;;;0.47;0.47;;;;;;;;;;5069284;28;20048;-69
2022/12/04 07:11:44;;;;;;;0.65;0.57;;;;;;;;;;5062698;28;20128;-68
2022/12/04 07:14:12;;;;;;;2.42;1.23;;;;;;;;;;5056512;28;20056;-68
2022/12/04 07:16:41;;;;;;;1.55;0.98;;;;;;;;;;5068903;28;20055;-72
2022/12/04 07:19:10;;;;;;;0.32;0.32;;;;;;;;;;5078231;28;20052;-68
2022/12/04 07:21:40;;;;;;;2.05;1.13;;;;;;;;;;5066946;28;20075;-72
2022/12/04 07:24:08;;;;;;;0.65;0.65;;;;;;;;;;5059264;28;20049;-69
2022/12/04 07:26:37;;;;;;;0.95;0.95;;;;;;;;;;5063952;28;20056;-69
2022/12/04 07:29:05;;;;;;;1.48;0.80;;;;;;;;;;5067632;28;20052;-68
2022/12/04 07:31:34;;;;;;;1.23;0.70;;;;;;;;;;5066859;28;20067;-68
2022/12/04 07:34:02;;;;;;;0.68;0.68;;;;;;;;;;5065337;28;20572;-68
2022/12/04 07:36:30;;;;;;;2.35;1.55;;;;;;;;;;5057462;28;20057;-67
2022/12/04 07:39:00;;;;;;;1.20;0.80;;;;;;;;;;5077504;28;20052;-68
2022/12/04 07:41:29;;;;;;;0.38;0.35;;;;;;;;;;5061856;28;20132;-68
2022/12/04 07:43:57;;;;;;;0.57;0.57;;;;;;;;;;5053748;28;20137;-68
2022/12/04 07:46:27;;;;;;;1.60;1.50;;;;;;;;;;5057746;28;20107;-70
2022/12/04 07:48:56;;;;;;;8.65;1.02;;;;;;;;;;5062301;28;20049;-73
2022/12/04 07:51:26;;;;;;;1.48;0.88;;;;;;;;;;5068969;28;20515;-68
2022/12/04 07:53:58;;;;;;;1.83;1.05;;;;;;;;;;5069537;28;20075;-69
2022/12/04 07:56:33;;;;;;;0.63;0.63;;;;;;;;;;5066893;28;20040;-69
2022/12/04 07:59:01;;;;;;;1.33;0.90;;;;;;;;;;5067558;28;20048;-67
2022/12/04 08:01:30;;;;;;;1.02;1.02;;;;;;;;;;5060855;28;20051;-67
2022/12/04 08:04:00;;;;;;;2.15;1.67;;;;;;;;;;5067678;28;20106;-70
2022/12/04 08:06:29;;;;;;;1.27;1.27;;;;;;;;;;5055819;28;20402;-68
2022/12/04 08:08:57;;;;;;;2.35;1.45;;;;;;;;;;5071559;28;20055;-68
2022/12/04 08:11:27;;;;;;;1.23;1.10;;;;;;;;;;5066396;28;20058;-71
2022/12/04 08:13:57;;;;;;;1.25;0.70;;;;;;;;;;5062381;28;20049;-70
2022/12/04 08:16:26;;;;;;;1.73;0.88;;;;;;;;;;5065713;28;20048;-69
2022/12/04 08:18:55;;;;;;;1.08;1.08;;;;;;;;;;5068422;28;20048;-68
2022/12/04 08:21:25;;;;;;;1.58;1.10;;;;;;;;;;5061371;28;20143;-68
2022/12/04 08:23:54;;;;;;;2.72;1.33;;;;;;;;;;5066468;28;20060;-68
2022/12/04 08:26:23;;;;;;;1.25;1.08;;;;;;;;;;5057240;28;20055;-70
2022/12/04 08:28:53;;;;;;;1.73;1.45;;;;;;;;;;5061191;28;20056;-68
2022/12/04 08:31:24;;;;;;;1.25;1.00;;;;;;;;;;5061719;28;20051;-68
2022/12/04 08:33:54;;;;;;;2.55;1.00;;;;;;;;;;5067256;28;20086;-68
2022/12/04 08:36:22;;;;;;;1.55;0.95;;;;;;;;;;5064196;28;20056;-69
2022/12/04 08:38:51;;;;;;;1.08;0.90;;;;;;;;;;5059427;28;20044;-69
2022/12/04 08:41:22;;;;;;;2.13;1.67;;;;;;;;;;5060964;28;20040;-68
2022/12/04 08:43:53;;;;;;;2.40;1.38;;;;;;;;;;5063752;28;20115;-68
2022/12/04 08:46:24;;;;;;;1.60;1.27;;;;;;;;;;5066294;28;20049;-68
2022/12/04 08:48:53;;;;;;;0.85;0.85;;;;;;;;;;5063960;28;20053;-68
2022/12/04 08:51:22;;;;;;;1.70;1.60;;;;;;;;;;5065773;28;20493;-68
2022/12/04 08:53:53;;;;;;;1.35;1.00;;;;;;;;;;5071225;28;20055;-67
2022/12/04 08:56:21;;;;;;;1.25;1.15;;;;;;;;;;5064978;28;20044;-69
2022/12/04 08:58:50;;;;;;;0.73;0.73;;;;;;;;;;5068766;28;20139;-69
2022/12/04 09:01:19;;;;;;;0.65;0.57;;;;;;;;;;5062744;28;20434;-69
2022/12/04 09:03:49;;;;;;;2.42;1.27;;;;;;;;;;5059212;28;20443;-68
2022/12/04 09:06:18;;;;;;;3.00;2.67;;;;;;;;;;5063422;28;20139;-68
2022/12/04 09:08:46;;;;;;;2.92;1.02;;;;;;;;;;5070592;28;20052;-69
2022/12/04 09:11:17;;;;;;;2.90;1.33;;;;;;;;;;5065517;28;20075;-68
2022/12/04 09:13:46;;;;;;;2.50;1.27;;;;;;;;;;5072030;28;20048;-69
2022/12/04 09:16:16;;;;;;;1.77;1.67;;;;;;;;;;5065166;28;20047;-68
2022/12/04 09:18:45;;;;;;;2.60;1.30;;;;;;;;;;5067478;28;20055;-71
2022/12/04 09:21:16;;;;;;;1.63;1.52;;;;;;;;;;5067113;28;20608;-70
2022/12/04 09:23:45;;;;;;;1.42;1.15;;;;;;;;;;5067932;28;20044;-68
2022/12/04 09:26:18;;;;;;;2.72;1.55;;;;;;;;;;5067909;28;20139;-69
2022/12/04 09:28:46;;;;;;;4.55;1.00;;;;;;;;;;5066774;28;20489;-70
2022/12/04 09:31:15;;;;;;;2.92;1.33;;;;;;;;;;5065939;28;20041;-68
2022/12/04 09:33:44;;;;;;;2.00;1.48;;;;;;;;;;5061174;28;20443;-69
2022/12/04 09:36:15;;;;;;;1.63;1.52;;;;;;;;;;5057959;28;20088;-69
2022/12/04 09:38:45;;;;;;;3.42;1.67;;;;;;;;;;5058984;28;20045;-68
2022/12/04 09:41:23;;;;;;;4.45;1.65;;;;;;;;;;5075233;28;20105;-68
2022/12/04 09:43:56;;;;;;;1.73;1.42;;;;;;;;;;5069212;28;20055;-72
2022/12/04 09:46:27;;;;;;;1.95;1.55;;;;;;;;;;5059316;28;20538;-70
2022/12/04 09:48:57;;;;;;;1.55;1.20;;;;;;;;;;5058559;28;20121;-69
2022/12/04 09:51:28;;;;;;;2.58;1.83;;;;;;;;;;5069079;28;20147;-69
2022/12/04 09:53:58;;;;;;;1.42;1.33;;;;;;;;;;5057923;28;20505;-68
2022/12/04 09:56:28;;;;;;;1.30;0.52;;;;;;;;;;5072235;28;20044;-69
2022/12/04 09:59:00;;;;;;;6.03;1.63;;;;;;;;;;5064194;28;20102;-70
2022/12/04 10:01:30;;;;;;;6.82;2.03;;;;;;;;;;5063765;28;20111;-69
2022/12/04 10:03:59;;;;;;;2.25;1.20;;;;;;;;;;5060471;28;20080;-68
2022/12/04 10:06:40;;;;;;;0.43;0.43;;;;;;;;;;5069351;28;20041;-69
2022/12/04 10:09:13;;;;;;;1.08;0.85;;;;;;;;;;5060183;28;20059;-72
2022/12/04 10:11:46;;;;;;;1.52;1.42;;;;;;;;;;5064392;28;20076;-69
2022/12/04 10:14:20;;;;;;;1.70;1.35;;;;;;;;;;5061922;28;20048;-69
2022/12/04 10:16:55;;;;;;;0.50;0.50;;;;;;;;;;5056936;28;20048;-73
2022/12/04 10:19:29;;;;;;;0.98;0.98;;;;;;;;;;5061418;28;20504;-69
2022/12/04 10:22:02;;;;;;;2.35;1.10;;;;;;;;;;5059856;28;20452;-69
2022/12/04 10:24:38;;;;;;;1.10;1.10;;;;;;;;;;5067329;28;20390;-69
2022/12/04 10:27:11;;;;;;;1.88;1.35;;;;;;;;;;5043553;28;20063;-69
2022/12/04 10:29:41;;;;;;;3.90;1.52;;;;;;;;;;5053345;28;20086;-69
2022/12/04 10:32:16;;;;;;;1.75;1.38;;;;;;;;;;5042937;28;20045;-69
2022/12/04 10:34:45;;;;;;;1.17;0.80;;;;;;;;;;5036627;28;20049;-69
2022/12/04 10:37:16;;;;;;;4.43;2.30;;;;;;;;;;5043478;28;20156;-70
2022/12/04 10:39:48;;;;;;;5.93;1.30;;;;;;;;;;5050812;28;20060;-68
2022/12/04 10:42:24;;;;;;;2.53;1.65;;;;;;;;;;5042110;28;20060;-69
2022/12/04 10:44:52;;;;;;;1.58;1.45;;;;;;;;;;5044079;28;20084;-69
2022/12/04 10:47:22;;;;;;;2.28;1.65;;;;;;;;;;5048755;28;20071;-68
2022/12/04 10:49:54;;;;;;;3.40;1.45;;;;;;;;;;5048738;28;20051;-70
2022/12/04 10:52:24;;;;;;;1.45;1.08;;;;;;;;;;5040889;28;20053;-69
2022/12/04 10:54:55;;;;;;;3.65;1.90;;;;;;;;;;5045473;28;20057;-68
2022/12/04 10:57:35;;;;;;;0.80;0.80;;;;;;;;;;5051436;28;20041;-68
2022/12/04 11:00:05;;;;;;;1.48;1.38;;;;;;;;;;5047408;28;20045;-72
2022/12/04 11:02:34;;;;;;;4.03;2.33;;;;;;;;;;5050831;28;20051;-69
2022/12/04 11:05:05;;;;;;;4.50;2.60;;;;;;;;;;5048011;28;20048;-68
2022/12/04 11:07:37;;;;;;;9.05;2.25;;;;;;;;;;5051065;28;20052;-68
2022/12/04 11:10:07;;;;;;;4.45;2.15;;;;;;;;;;5037946;28;20132;-69
2022/12/04 11:12:36;;;;;;;6.82;2.42;;;;;;;;;;5037286;28;20524;-69
2022/12/04 11:15:13;;;;;;;4.38;2.05;;;;;;;;;;5047391;28;20055;-69
2022/12/04 11:17:42;;;;;;;3.60;2.28;;;;;;;;;;5041208;28;20099;-68
2022/12/04 11:20:16;;;;;;;3.80;2.30;;;;;;;;;;5051490;28;20048;-69
2022/12/04 11:22:53;;;;;;;2.63;1.38;;;;;;;;;;5043110;28;20049;-68
2022/12/04 11:25:23;;;;;;;2.70;1.67;;;;;;;;;;5045774;28;20057;-69
2022/12/04 11:27:53;;;;;;;3.45;1.40;;;;;;;;;;5040246;28;20489;-70
2022/12/04 11:30:25;;;;;;;4.47;2.10;;;;;;;;;;5035562;28;20096;-71
2022/12/04 11:32:54;;;;;;;2.55;1.90;;;;;;;;;;5040921;28;20049;-68
2022/12/04 11:35:24;;;;;;;0.82;0.52;;;;;;;;;;5035767;28;20060;-69
2022/12/04 11:37:55;;;;;;;2.45;1.92;;;;;;;;;;5051150;28;20524;-69
2022/12/04 11:40:25;;;;;;;4.13;1.73;;;;;;;;;;5046037;28;20760;-68
2022/12/04 11:43:04;;;;;;;0.82;0.68;;;;;;;;;;5045116;28;20480;-71
2022/12/04 11:45:33;;;;;;;3.38;1.50;;;;;;;;;;5045827;28;20053;-69
2022/12/04 11:48:03;;;;;;;1.70;0.98;;;;;;;;;;5038434;28;20048;-69
2022/12/04 11:50:37;;;;;;;4.85;1.55;;;;;;;;;;5042019;28;20052;-68
2022/12/04 11:53:12;;;;;;;1.02;0.98;;;;;;;;;;5039206;28;20045;-68
2022/12/04 11:55:44;;;;;;;2.60;1.30;;;;;;;;;;5038827;28;20064;-68
2022/12/04 11:58:18;;;;;;;1.23;1.02;;;;;;;;;;5038602;28;20053;-70
2022/12/04 12:00:50;;;;;;;2.53;1.45;;;;;;;;;;5043069;28;20055;-69
2022/12/04 12:03:23;;;;;;;3.60;1.65;;;;;;;;;;5041912;28;20848;-71
2022/12/04 12:06:13;;;;;;;1.42;1.17;;;;;;;;;;5035710;28;20060;-69
2022/12/04 12:08:50;;;;;;;0.47;0.47;;;;;;;;;;5040138;28;20036;-70
2022/12/04 12:11:22;;;;;;;0.98;0.95;;;;;;;;;;5043058;28;20057;-70
2022/12/04 12:13:54;;;;;;;2.58;1.98;;;;;;;;;;5044045;28;20128;-70
2022/12/04 12:16:27;;;;;;;2.22;1.27;;;;;;;;;;5043781;28;20098;-69
2022/12/04 12:19:13;;;;;;;7.88;2.45;;;;;;;;;;5047567;28;20052;-71
2022/12/04 12:21:46;;;;;;;2.33;2.17;;;;;;;;;;5055019;28;20082;-68
2022/12/04 12:24:22;;;;;;;1.03;0.93;;;;;;;;;;5040056;28;20713;-68
2022/12/04 12:26:55;;;;;;;3.47;2.08;;;;;;;;;;5047978;28;20365;-70
2022/12/04 12:29:34;;;;;;;2.25;1.45;;;;;;;;;;5044782;28;20052;-68
2022/12/04 12:32:15;;;;;;;2.08;1.88;;;;;;;;;;5045610;28;20076;-69
2022/12/04 12:34:44;;;;;;;4.82;2.72;;;;;;;;;;5039933;28;20486;-69
2022/12/04 12:37:24;;;;;;;1.05;1.05;;;;;;;;;;5046770;28;20049;-69
2022/12/04 12:39:58;;;;;;;1.92;1.80;;;;;;;;;;5047592;28;20606;-69
2022/12/04 12:42:29;;;;;;;2.45;1.73;;;;;;;;;;5053135;28;20101;-70
2022/12/04 12:45:03;;;;;;;2.30;0.82;;;;;;;;;;5039843;28;20048;-71
2022/12/04 12:47:33;;;;;;;4.95;1.90;;;;;;;;;;5044775;28;20081;-70
2022/12/04 12:50:04;;;;;;;3.22;2.35;;;;;;;;;;5048376;28;20124;-71
2022/12/04 12:52:35;;;;;;;2.55;1.88;;;;;;;;;;5051374;28;20052;-70
2022/12/04 12:55:14;;;;;;;3.70;1.98;;;;;;;;;;5043900;28;20060;-71
2022/12/04 12:57:43;;;;;;;2.25;1.58;;;;;;;;;;5048636;28;20164;-70
2022/12/04 13:00:15;;;;;;;4.93;2.42;;;;;;;;;;5047494;28;20565;-68
2022/12/04 13:02:45;;;;;;;2.85;2.17;;;;;;;;;;5046727;28;20473;-72
2022/12/04 13:05:15;;;;;;;4.10;1.45;;;;;;;;;;5049810;28;20161;-69
2022/12/04 13:07:49;;;;;;;2.88;1.65;;;;;;;;;;5047973;28;20087;-71
2022/12/04 13:10:21;;;;;;;3.63;1.20;;;;;;;;;;5044798;28;20084;-72
2022/12/04 13:12:51;;;;;;;3.38;2.35;;;;;;;;;;5039867;28;20049;-69
2022/12/04 13:15:22;;;;;;;1.98;1.35;;;;;;;;;;5045695;28;20446;-71
2022/12/04 13:17:53;;;;;;;2.47;1.42;;;;;;;;;;5051829;28;20048;-72
2022/12/04 13:20:24;;;;;;;4.90;1.98;;;;;;;;;;5045561;28;20048;-68
2022/12/04 13:22:59;;;;;;;1.80;1.48;;;;;;;;;;5040598;28;20144;-71
2022/12/04 13:25:35;;;;;;;1.92;1.33;;;;;;;;;;5049257;28;20171;-68
2022/12/04 13:28:09;;;;;;;3.20;2.28;;;;;;;;;;5049723;28;20088;-71
2022/12/04 13:30:43;;;;;;;2.45;1.42;;;;;;;;;;5048559;28;20150;-70
2022/12/04 13:33:35;;;;;;;3.30;1.92;;;;;;;;;;5045235;28;20090;-70
2022/12/04 13:36:09;;;;;;;5.32;2.00;;;;;;;;;;5027561;28;20366;-71
2022/12/04 13:38:43;;;;;;;2.88;2.38;;;;;;;;;;5032576;28;20056;-69
2022/12/04 13:41:17;;;;;;;4.03;1.98;;;;;;;;;;5045092;28;20080;-68
2022/12/04 13:43:47;;;;;;;4.05;1.75;;;;;;;;;;5048586;28;20040;-69
2022/12/04 13:46:33;;;;;;;3.08;1.70;;;;;;;;;;5048284;28;20485;-72
2022/12/04 13:49:09;;;;;;;7.78;2.08;;;;;;;;;;5042335;28;20087;-69
2022/12/04 13:51:38;;;;;;;1.60;1.10;;;;;;;;;;5042412;28;20087;-68
2022/12/04 13:54:27;;;;;;;2.17;1.65;;;;;;;;;;5057734;28;20090;-69
2022/12/04 13:56:58;;;;;;;3.22;2.38;;;;;;;;;;5062107;28;20060;-69
2022/12/04 13:59:37;;;;;;;2.13;1.70;;;;;;;;;;5058643;28;20076;-68
2022/12/04 14:02:21;;;;;;;4.38;2.15;;;;;;;;;;5064322;28;20080;-70
2022/12/04 14:04:54;;;;;;;2.83;1.63;;;;;;;;;;5070255;28;20055;-67
2022/12/04 14:07:25;;;;;;;7.93;2.78;;;;;;;;;;5068515;28;20134;-68
2022/12/04 14:09:55;;;;;;;1.98;1.75;;;;;;;;;;5065303;28;20044;-67
2022/12/04 14:12:28;;;;;;;9.48;2.97;;;;;;;;;;5068818;28;20500;-67
2022/12/04 14:14:59;;;;;;;4.38;2.15;;;;;;;;;;5067939;28;20048;-70
2022/12/04 14:17:29;;;;;;;2.25;1.98;;;;;;;;;;5068168;28;20055;-71
2022/12/04 14:19:59;;;;;;;5.90;1.75;;;;;;;;;;5061586;28;20048;-75
2022/12/04 14:22:41;;;;;;;3.40;2.28;;;;;;;;;;5071133;28;20051;-67
2022/12/04 14:25:09;;;;;;;;;;;;;;;;;;5060191;28;20103;-70
2022/12/04 14:27:45;;;;;;;2.17;1.63;;;;;;;;;;5064217;28;19930;-72
2022/12/04 14:30:19;;;;;;;0.70;0.63;;;;;;;;;;5071893;28;20044;-71
2022/12/04 14:32:48;;;;;;;3.42;1.42;;;;;;;;;;5060950;28;20053;-72
2022/12/04 14:35:18;;;;;;;5.90;1.70;;;;;;;;;;5066056;28;20097;-70
2022/12/04 14:37:50;;;;;;;10.77;1.50;;;;;;;;;;5062658;28;20052;-70
2022/12/04 14:40:21;;;;;;;4.78;2.72;;;;;;;;;;5062621;28;20067;-68
2022/12/04 14:42:51;;;;;;;3.40;3.08;;;;;;;;;;5073445;28;20506;-69
2022/12/04 14:45:23;;;;;;;5.22;3.17;;;;;;;;;;5071705;28;20132;-70
2022/12/04 14:47:58;;;;;;;2.38;2.17;;;;;;;;;;5062754;28;20049;-72
2022/12/04 14:50:30;;;;;;;4.00;2.03;;;;;;;;;;5053277;28;20132;-70
2022/12/04 14:53:01;;;;;;;5.55;2.45;;;;;;;;;;5048359;28;20045;-68
2022/12/04 14:55:33;;;;;;;4.40;2.05;;;;;;;;;;5055703;28;20109;-66
2022/12/04 14:58:28;;;;;;;2.90;0.90;;;;;;;;;;5058120;28;20126;-70
2022/12/04 15:00:53;;;;;;;2.20;1.73;;;;;;;;;;5056925;28;20445;-71
2022/12/04 15:03:22;;;;;;;4.03;2.42;;;;;;;;;;5069598;28;20526;-68
2022/12/04 15:05:51;;;;;;;6.93;2.95;;;;;;;;;;5066255;28;20044;-71
2022/12/04 15:08:20;;;;;;;5.43;2.47;;;;;;;;;;5063117;28;20070;-68
2022/12/04 15:13:38;;;;;;;4.40;2.03;;;;;;;;;;5063539;28;20045;-67
2022/12/04 15:16:11;;;;;;;6.82;2.42;;;;;;;;;;5054678;28;20064;-66
2022/12/04 15:18:40;;;;;;;4.13;2.58;;;;;;;;;;5049141;28;20048;-68
2022/12/04 15:21:11;;;;;;;10.93;2.75;;;;;;;;;;5055617;28;20155;-68